M I D A S
Marine Information and Data Acquisition System
Tripno 1231 of the Zeeleeuw from 2007-03-14 09:39:51 to 2007-03-14 15:19:52
Back to CruiseResearch ActivitiesStationsMapUnderway DataData graphs

EquipmentUnitsComment
TimeDGPSUTC
LatitudeDGPSDM.mWGS84
LongitudeDGPSDM.mWGS84
HeadingGyrodeg 
SOGDGPSknotsSpeed over ground
COGDGPSdegCourse over ground
DepthEcho soundermeters200 kHz
Missing or incorrect values are displayed as -999
Navigation data collected by the RV Zeeleeuw from 2007-03-14 07:26:35 to 2007-03-14 15:30:33
Time Latitude Longitude Heading SOG COG Depth
2007-03-14 07:27:40 51°13.597 2°56.094 126.2 -999 116 -999
2007-03-14 07:28:40 51°13.597 2°56.094 126 -999 125 -999
2007-03-14 07:29:40 51°13.598 2°56.094 126 0.1 167 -999
2007-03-14 07:30:40 51°13.598 2°56.094 126.3 -999 334 -999
2007-03-14 07:31:40 51°13.598 2°56.094 126.1 -999 195 -999
2007-03-14 07:32:40 51°13.599 2°56.094 126.3 -999 325 -999
2007-03-14 07:33:40 51°13.598 2°56.094 126.4 -999 180 -999
2007-03-14 07:34:40 51°13.598 2°56.094 126 0.1 315 -999
2007-03-14 07:35:40 51°13.598 2°56.094 125.6 -999 85 -999
2007-03-14 07:36:40 51°13.597 2°56.094 125.6 -999 152 -999
2007-03-14 07:37:40 51°13.598 2°56.095 126.1 -999 286 -999
2007-03-14 07:38:40 51°13.599 2°56.094 124.7 -999 265 -999
2007-03-14 07:39:40 51°13.599 2°56.095 125 -999 120 -999
2007-03-14 07:40:40 51°13.599 2°56.095 125.6 -999 321 -999
2007-03-14 07:41:40 51°13.598 2°56.095 125.5 -999 37 -999
2007-03-14 07:42:40 51°13.598 2°56.094 125.6 -999 216 -999
2007-03-14 07:43:40 51°13.598 2°56.095 125.8 -999 109 -999
2007-03-14 07:44:40 51°13.598 2°56.095 126 -999 339 -999
2007-03-14 07:45:40 51°13.598 2°56.095 125.9 -999 192 -999
2007-03-14 07:46:40 51°13.598 2°56.096 125.9 -999 246 -999
2007-03-14 07:47:40 51°13.598 2°56.095 125.7 -999 185 -999
2007-03-14 07:48:40 51°13.598 2°56.094 125.6 -999 262 -999
2007-03-14 07:49:40 51°13.599 2°56.095 125.5 -999 283 -999
2007-03-14 07:50:40 51°13.599 2°56.094 125.5 -999 284 -999
2007-03-14 07:51:40 51°13.599 2°56.094 125.6 -999 319 -999
2007-03-14 07:52:40 51°13.599 2°56.094 125.6 -999 32 -999
2007-03-14 07:53:40 51°13.599 2°56.094 125.7 -999 241 -999
2007-03-14 07:54:40 51°13.598 2°56.094 125.7 -999 349 -999
2007-03-14 07:55:40 51°13.599 2°56.094 125.5 -999 341 -999
2007-03-14 07:56:40 51°13.599 2°56.094 125.5 -999 227 -999
2007-03-14 07:57:40 51°13.599 2°56.094 125.4 -999 291 -999
2007-03-14 07:58:40 51°13.599 2°56.093 125.5 -999 271 -999
2007-03-14 07:59:40 51°13.598 2°56.093 125.7 -999 188 -999
2007-03-14 08:00:40 51°13.599 2°56.094 125.9 -999 232 -999
2007-03-14 08:01:40 51°13.599 2°56.094 125.8 -999 316 -999
2007-03-14 08:02:40 51°13.598 2°56.094 125.6 -999 179 -999
2007-03-14 08:03:40 51°13.598 2°56.095 125.5 -999 14 -999
2007-03-14 08:04:40 51°13.599 2°56.095 125.6 -999 35 -999
2007-03-14 08:05:40 51°13.599 2°56.095 125.6 -999 70 -999
2007-03-14 08:06:40 51°13.597 2°56.094 125.7 -999 20 -999
2007-03-14 08:07:40 51°13.597 2°56.094 125.7 -999 166 -999
2007-03-14 08:08:40 51°13.597 2°56.094 125.7 -999 169 -999
2007-03-14 08:09:40 51°13.597 2°56.093 125.7 -999 211 -999
2007-03-14 08:10:40 51°13.597 2°56.093 125.8 -999 218 -999
2007-03-14 08:11:40 51°13.597 2°56.093 125.6 -999 75 -999
2007-03-14 08:12:40 51°13.598 2°56.094 125.7 -999 205 -999
2007-03-14 08:13:40 51°13.598 2°56.094 125.7 -999 232 -999
2007-03-14 08:14:40 51°13.597 2°56.093 126.2 -999 179 -999
2007-03-14 08:15:40 51°13.598 2°56.094 126.2 -999 147 -999
2007-03-14 08:16:40 51°13.599 2°56.093 126.2 -999 185 -999
2007-03-14 08:17:40 51°13.598 2°56.094 126.2 -999 131 -999
2007-03-14 08:18:40 51°13.598 2°56.094 126.2 -999 229 -999
2007-03-14 08:19:40 51°13.597 2°56.094 126.2 -999 225 -999
2007-03-14 08:20:40 51°13.597 2°56.093 126 -999 328 -999
2007-03-14 08:21:40 51°13.597 2°56.093 126 -999 327 -999
2007-03-14 08:22:40 51°13.598 2°56.093 126 -999 71 -999
2007-03-14 08:23:40 51°13.599 2°56.093 126.1 -999 250 -999
2007-03-14 08:24:40 51°13.599 2°56.094 126 -999 228 -999
2007-03-14 08:25:40 51°13.6 2°56.094 126 -999 342 -999
2007-03-14 08:26:40 51°13.6 2°56.094 126 -999 261 -999
2007-03-14 08:27:40 51°13.599 2°56.094 126 -999 271 -999
2007-03-14 08:28:40 51°13.599 2°56.095 125.9 -999 156 -999
2007-03-14 08:29:40 51°13.598 2°56.094 125.9 -999 301 -999
2007-03-14 08:30:40 51°13.598 2°56.094 125.9 -999 281 -999
2007-03-14 08:31:40 51°13.599 2°56.094 125.9 -999 43 -999
2007-03-14 08:32:40 51°13.599 2°56.094 125.8 -999 297 -999
2007-03-14 08:33:40 51°13.599 2°56.094 125.8 -999 20 -999
2007-03-14 08:34:40 51°13.599 2°56.094 125.8 -999 247 -999
2007-03-14 08:35:40 51°13.598 2°56.094 125.8 -999 194 -999
2007-03-14 08:36:40 51°13.599 2°56.094 125.8 -999 71 -999
2007-03-14 08:37:40 51°13.599 2°56.094 125.9 -999 190 -999
2007-03-14 08:38:40 51°13.599 2°56.094 125.4 -999 323 -999
2007-03-14 08:39:40 51°13.599 2°56.095 124.6 0.1 34 -999
2007-03-14 08:40:40 51°13.599 2°56.095 126.3 0.1 270 -999
2007-03-14 08:41:40 51°13.599 2°56.094 126.5 -999 305 -999
2007-03-14 08:42:40 51°13.599 2°56.094 124.9 -999 312 -999
2007-03-14 08:43:40 51°13.598 2°56.094 124.2 -999 240 -999
2007-03-14 08:44:40 51°13.598 2°56.094 124.7 -999 115 -999
2007-03-14 08:45:40 51°13.598 2°56.094 125.2 -999 205 -999
2007-03-14 08:46:40 51°13.598 2°56.094 125.9 -999 184 -999
2007-03-14 08:47:40 51°13.598 2°56.094 125.5 0.1 320 -999
2007-03-14 08:48:40 51°13.599 2°56.094 125.1 -999 147 -999
2007-03-14 08:49:40 51°13.598 2°56.093 125 0.1 40 -999
2007-03-14 08:50:40 51°13.598 2°56.094 125 -999 21 8.1
2007-03-14 08:51:40 51°13.597 2°56.094 124.5 -999 242 -999
2007-03-14 08:52:40 51°13.597 2°56.094 124.6 -999 81 -999
2007-03-14 08:53:40 51°13.597 2°56.094 124.8 -999 145 -999
2007-03-14 08:54:40 51°13.598 2°56.094 125.1 -999 276 8
2007-03-14 08:55:40 51°13.598 2°56.095 125.5 -999 57 -999
2007-03-14 08:56:40 51°13.599 2°56.095 125.3 -999 247 -999
2007-03-14 08:57:39 51°13.6 2°56.095 125.2 -999 280 8.1
2007-03-14 08:58:40 51°13.599 2°56.095 124.8 -999 98 -999
2007-03-14 08:59:40 51°13.599 2°56.095 125.1 -999 82 8.1
2007-03-14 09:00:40 51°13.599 2°56.095 125.5 -999 182 -999
2007-03-14 09:01:40 51°13.599 2°56.096 126 -999 259 8.1
2007-03-14 09:02:40 51°13.599 2°56.096 126.2 -999 19 8.1
2007-03-14 09:03:40 51°13.599 2°56.095 126.2 0.1 309 8.1
2007-03-14 09:04:40 51°13.599 2°56.095 125.1 0.1 331 8.2
2007-03-14 09:05:40 51°13.598 2°56.094 125.2 -999 340 -999
2007-03-14 09:06:40 51°13.599 2°56.094 124.9 0.1 170 -999
2007-03-14 09:07:40 51°13.599 2°56.094 125.6 0.1 202 8
2007-03-14 09:08:40 51°13.598 2°56.094 125.7 -999 125 -999
2007-03-14 09:09:40 51°13.597 2°56.094 125.5 -999 95 8.1
2007-03-14 09:10:40 51°13.599 2°56.095 125.8 -999 188 -999
2007-03-14 09:11:40 51°13.6 2°56.094 125.1 -999 328 8
2007-03-14 09:12:40 51°13.597 2°56.094 124.8 -999 270 -999
2007-03-14 09:13:40 51°13.597 2°56.094 124.9 -999 180 -999
2007-03-14 09:14:40 51°13.597 2°56.095 125.2 -999 93 8.2
2007-03-14 09:15:40 51°13.597 2°56.096 125.5 -999 246 -999
2007-03-14 09:16:40 51°13.597 2°56.095 124.9 -999 261 -999
2007-03-14 09:17:40 51°13.598 2°56.094 124 -999 246 8
2007-03-14 09:18:40 51°13.598 2°56.094 124.1 -999 283 -999
2007-03-14 09:19:39 51°13.598 2°56.094 124.4 -999 157 8
2007-03-14 09:20:40 51°13.598 2°56.094 124.1 -999 347 -999
2007-03-14 09:21:40 51°13.598 2°56.094 124.4 -999 50 7.9
2007-03-14 09:22:40 51°13.598 2°56.095 124.6 -999 158 -999
2007-03-14 09:23:39 51°13.598 2°56.095 125.5 -999 212 7.9
2007-03-14 09:24:40 51°13.598 2°56.094 125.1 -999 302 -999
2007-03-14 09:25:40 51°13.598 2°56.095 124.9 -999 119 -999
2007-03-14 09:26:40 51°13.599 2°56.096 125.3 -999 322 7.8
2007-03-14 09:27:40 51°13.595 2°56.095 125.5 0.1 149 7.9
2007-03-14 09:28:40 51°13.595 2°56.096 126.8 -999 256 8.1
2007-03-14 09:29:40 51°13.598 2°56.1 122.4 -999 162 7.9
2007-03-14 09:30:39 51°13.597 2°56.088 113.6 1.3 294 8.2
2007-03-14 09:31:40 51°13.618 2°56.023 120.6 3.9 298 -999
2007-03-14 09:32:40 51°13.653 2°55.916 121.5 4.6 298 -999
2007-03-14 09:33:39 51°13.687 2°55.827 116.8 3.4 296 11.5
2007-03-14 09:34:40 51°13.704 2°55.754 106.6 2.1 289 -999
2007-03-14 09:35:40 51°13.71 2°55.739 71.9 0.8 40 -999
2007-03-14 09:36:40 51°13.714 2°55.736 33.7 1.2 224 -999
2007-03-14 09:37:40 51°13.707 2°55.721 15.4 0.5 326 4.5
2007-03-14 09:38:40 51°13.736 2°55.703 340.5 3.3 334 -999
2007-03-14 09:39:39 51°13.815 2°55.649 342.4 6.5 339 12.6
2007-03-14 09:40:40 51°13.928 2°55.58 343.2 7.5 339 -999
2007-03-14 09:41:40 51°14.046 2°55.506 341.7 7.7 338 12.8
2007-03-14 09:42:39 51°14.161 2°55.424 337.3 7.8 333 -999
2007-03-14 09:43:38 51°14.273 2°55.287 315.6 9.7 309 11.7
2007-03-14 09:44:36 51°14.37 2°55.051 304.6 11.9 300 12
2007-03-14 09:45:36 51°14.474 2°54.779 301.9 12.1 300 11.8
2007-03-14 09:46:36 51°14.565 2°54.487 297.1 12.6 296 11.4
2007-03-14 09:47:36 51°14.658 2°54.176 297.8 13.3 297 11.8
2007-03-14 09:48:36 51°14.765 2°53.865 300.5 13.4 298 11.1
2007-03-14 09:49:36 51°14.787 2°53.523 266.6 13.3 264 12.1
2007-03-14 09:50:36 51°14.775 2°53.17 269.9 13.2 269 10.5
2007-03-14 09:51:36 51°14.777 2°52.818 272.5 13.3 271 10.6
2007-03-14 09:52:36 51°14.781 2°52.466 272.9 13.3 271 10.7
2007-03-14 09:53:36 51°14.777 2°52.116 269.5 13.2 268 11
2007-03-14 09:54:36 51°14.767 2°51.764 269.5 13.4 267 11.2
2007-03-14 09:55:36 51°14.759 2°51.412 270.1 13.3 268 11.7
2007-03-14 09:56:36 51°14.751 2°51.061 270 13.2 268 12.1
2007-03-14 09:57:36 51°14.761 2°50.712 275.7 13.1 274 12.7
2007-03-14 09:58:36 51°14.775 2°50.365 275.4 13.2 273 12.9
2007-03-14 09:59:36 51°14.788 2°50.019 275.6 13 274 13.2
2007-03-14 10:00:36 51°14.801 2°49.675 275.3 13 274 13.3
2007-03-14 10:01:36 51°14.816 2°49.329 275.5 13.1 274 13.4
2007-03-14 10:02:36 51°14.828 2°48.981 275.1 13.2 273 13.4
2007-03-14 10:03:36 51°14.84 2°48.63 275.1 13.3 273 13.2
2007-03-14 10:04:36 51°14.851 2°48.279 275.2 13.3 273 13.1
2007-03-14 10:05:36 51°14.865 2°47.93 275.1 13.2 274 13.8
2007-03-14 10:06:36 51°14.876 2°47.583 275 13.1 272 13.8
2007-03-14 10:07:36 51°14.897 2°47.24 278.3 13.1 276 12.5
2007-03-14 10:08:36 51°14.918 2°46.894 278.1 13.1 276 10.2
2007-03-14 10:09:36 51°14.94 2°46.545 278.4 13.3 276 9.9
2007-03-14 10:10:36 51°14.963 2°46.189 278.7 13.5 276 11.5
2007-03-14 10:11:36 51°14.987 2°45.834 278.7 13.4 276 13.4
2007-03-14 10:12:36 51°15.009 2°45.484 278.3 13.3 276 15.1
2007-03-14 10:13:36 51°15.032 2°45.135 278.5 13.2 276 16.5
2007-03-14 10:14:36 51°15.055 2°44.788 278.1 13.1 276 17.5
2007-03-14 10:15:36 51°15.077 2°44.442 278 13.1 276 18.8
2007-03-14 10:16:36 51°15.099 2°44.094 278.1 13.3 276 18.8
2007-03-14 10:17:36 51°15.123 2°43.746 278.4 13.1 277 14.1
2007-03-14 10:18:36 51°15.146 2°43.399 278.3 13.2 276 14.2
2007-03-14 10:19:36 51°15.17 2°43.051 278.5 13.1 276 14.3
2007-03-14 10:20:36 51°15.194 2°42.701 278.2 13.2 276 14.6
2007-03-14 10:21:36 51°15.224 2°42.353 284.1 13.3 283 13.2
2007-03-14 10:22:36 51°15.303 2°42.023 298.5 13.4 296 11.6
2007-03-14 10:23:37 51°15.413 2°41.702 303.2 13.6 302 11.6
2007-03-14 10:24:36 51°15.543 2°41.412 314.6 13.7 314 11.4
2007-03-14 10:25:36 51°15.73 2°41.199 330 13.8 326 12.3
2007-03-14 10:26:37 51°15.935 2°41.014 336.4 13.9 333 15.4
2007-03-14 10:27:36 51°16.139 2°40.851 336.1 13.9 333 19.1
2007-03-14 10:28:36 51°16.342 2°40.681 334.7 13.8 331 21.1
2007-03-14 10:29:36 51°16.545 2°40.509 335.3 13.8 332 22.6
2007-03-14 10:30:37 51°16.75 2°40.33 334.7 13.8 331 22.6
2007-03-14 10:31:36 51°16.948 2°40.156 334.6 13.8 331 20.4
2007-03-14 10:32:36 51°17.15 2°39.975 334.6 13.9 330 16.1
2007-03-14 10:33:37 51°17.352 2°39.79 334.8 13.7 331 14.2
2007-03-14 10:34:36 51°17.554 2°39.633 343.1 13.9 339 15.6
2007-03-14 10:35:36 51°17.772 2°39.505 339.6 13.8 336 20.2
2007-03-14 10:36:36 51°17.981 2°39.352 337.7 13.8 335 27.2
2007-03-14 10:37:36 51°18.191 2°39.2 338.1 13.8 336 26.8
2007-03-14 10:38:36 51°18.4 2°39.05 338 13.8 335 26.8
2007-03-14 10:39:36 51°18.61 2°38.898 337.9 13.8 335 27
2007-03-14 10:40:36 51°18.821 2°38.747 338.3 13.9 336 27.3
2007-03-14 10:41:37 51°19.035 2°38.591 338.4 13.8 335 28
2007-03-14 10:42:36 51°19.239 2°38.436 338.2 13.8 335 26.4
2007-03-14 10:43:36 51°19.445 2°38.274 334 13.7 330 23.3
2007-03-14 10:44:37 51°19.637 2°38.066 325.1 13.7 321 23.1
2007-03-14 10:45:36 51°19.809 2°37.835 321.1 13.7 318 22.3
2007-03-14 10:46:36 51°19.979 2°37.594 321.4 13.7 318 22.9
2007-03-14 10:47:36 51°20.13 2°37.386 321.3 9 318 22.9
2007-03-14 10:48:36 51°20.162 2°37.237 266.5 5.3 265 22.8
2007-03-14 10:49:36 51°20.146 2°37.118 250.2 3.5 248 22.4
2007-03-14 10:50:36 51°20.123 2°37.06 227.9 2.2 227 22.5
2007-03-14 10:51:36 51°20.1 2°37.027 221.1 1.6 217 20.5
2007-03-14 10:52:37 51°20.079 2°37.005 218.3 1.3 213 21
2007-03-14 10:53:36 51°20.064 2°36.988 217.7 1.1 212 22.7
2007-03-14 10:54:36 51°20.05 2°36.975 218.6 1 211 22.8
2007-03-14 10:55:36 51°20.038 2°36.962 222.9 0.8 210 23
2007-03-14 10:56:36 51°20.028 2°36.951 227.4 0.6 218 22.6
2007-03-14 10:57:36 51°20.02 2°36.94 230.4 0.6 216 22.3
2007-03-14 10:58:37 51°20.013 2°36.93 232.8 0.5 223 22.5
2007-03-14 10:59:36 51°20.008 2°36.922 234.4 0.4 232 22.1
2007-03-14 11:00:36 51°20.004 2°36.915 235.9 0.4 234 22.1
2007-03-14 11:01:37 51°20 2°36.908 237.6 0.3 229 21.9
2007-03-14 11:02:36 51°19.997 2°36.903 238.1 0.2 221 22
2007-03-14 11:03:36 51°19.994 2°36.899 238.4 0.3 205 22.3
2007-03-14 11:04:37 51°19.992 2°36.896 238.9 0.2 224 22.1
2007-03-14 11:05:37 51°19.99 2°36.894 238.9 0.2 196 21.9
2007-03-14 11:06:36 51°19.988 2°36.892 238.4 0.2 200 22.2
2007-03-14 11:07:37 51°19.986 2°36.891 238.7 0.2 185 22.2
2007-03-14 11:08:36 51°19.984 2°36.89 239.2 0.3 161 21.8
2007-03-14 11:09:36 51°19.983 2°36.89 239.9 0.1 165 21.8
2007-03-14 11:10:37 51°19.982 2°36.89 240.3 0.1 313 21.8
2007-03-14 11:11:36 51°19.981 2°36.89 240.2 -999 352 22
2007-03-14 11:12:36 51°19.98 2°36.891 240.2 -999 325 21.9
2007-03-14 11:13:37 51°19.98 2°36.892 239.6 0.1 131 21.8
2007-03-14 11:14:37 51°19.979 2°36.894 238 0.1 110 21.7
2007-03-14 11:15:36 51°19.978 2°36.897 236.6 0.1 133 21.8
2007-03-14 11:16:37 51°19.977 2°36.9 235 0.1 121 21.8
2007-03-14 11:17:36 51°19.977 2°36.902 233 0.1 103 22
2007-03-14 11:18:36 51°19.976 2°36.906 231.4 0.1 98 22
2007-03-14 11:19:37 51°19.976 2°36.906 229.7 0.1 103 21.9
2007-03-14 11:20:36 51°19.975 2°36.91 228.1 0.1 112 21.6
2007-03-14 11:21:36 51°19.975 2°36.913 226.3 0.1 86 21.6
2007-03-14 11:22:37 51°19.974 2°36.918 224.2 0.1 345 21.7
2007-03-14 11:23:36 51°19.973 2°36.922 221.5 0.1 60 21.8
2007-03-14 11:24:36 51°19.972 2°36.926 218.4 0.1 74 21.7
2007-03-14 11:25:37 51°19.971 2°36.931 215.6 0.1 94 21.4
2007-03-14 11:26:36 51°19.97 2°36.935 213 0.1 104 21.6
2007-03-14 11:27:36 51°19.969 2°36.939 211.2 0.2 115 21.4
2007-03-14 11:28:37 51°19.968 2°36.944 210 0.2 109 21.5
2007-03-14 11:29:36 51°19.967 2°36.946 209.5 0.1 109 21.6
2007-03-14 11:30:37 51°19.965 2°36.949 209.4 0.1 118 21.5
2007-03-14 11:31:36 51°19.964 2°36.952 210 0.1 124 21.5
2007-03-14 11:32:37 51°19.963 2°36.955 210.6 0.1 114 21.3
2007-03-14 11:33:36 51°19.962 2°36.957 211.3 0.1 131 21.3
2007-03-14 11:34:37 51°19.961 2°36.961 211.6 0.2 142 21.4
2007-03-14 11:35:36 51°19.96 2°36.963 211.4 0.1 125 21.6
2007-03-14 11:36:36 51°19.959 2°36.966 211 0.2 135 21.7
2007-03-14 11:37:37 51°19.957 2°36.968 211 0.1 145 21.8
2007-03-14 11:38:37 51°19.955 2°36.97 211.2 0.2 149 21.9
2007-03-14 11:39:37 51°19.953 2°36.973 212.1 0.2 146 22
2007-03-14 11:40:36 51°19.951 2°36.975 214.1 0.1 167 22
2007-03-14 11:41:37 51°19.949 2°36.976 215.8 0.1 150 22.1
2007-03-14 11:42:36 51°19.947 2°36.977 217.8 0.1 194 22
2007-03-14 11:43:36 51°19.944 2°36.978 219.8 0.2 153 21.8
2007-03-14 11:44:37 51°19.942 2°36.979 221.3 0.1 158 21.9
2007-03-14 11:45:37 51°19.94 2°36.978 222.1 0.1 196 21.8
2007-03-14 11:46:36 51°19.938 2°36.977 222.3 0.2 156 21.8
2007-03-14 11:47:37 51°19.935 2°36.975 222.1 0.1 190 22
2007-03-14 11:48:37 51°19.933 2°36.975 223 0.1 241 22
2007-03-14 11:49:36 51°19.932 2°36.975 226 0.1 249 21.6
2007-03-14 11:50:37 51°19.931 2°36.974 226.6 0.1 186 21.7
2007-03-14 11:51:36 51°19.929 2°36.974 226.4 0.1 160 21.9
2007-03-14 11:52:36 51°19.928 2°36.974 225.3 0.1 186 21.9
2007-03-14 11:53:37 51°19.926 2°36.974 224.1 0.2 171 21.5
2007-03-14 11:54:37 51°19.924 2°36.973 222.8 0.1 183 21.6
2007-03-14 11:55:36 51°19.922 2°36.973 221.5 0.1 159 21.9
2007-03-14 11:56:37 51°19.919 2°36.973 218.8 0.2 183 21.9
2007-03-14 11:57:37 51°19.917 2°36.973 216.6 0.2 165 21.6
2007-03-14 11:58:36 51°19.914 2°36.972 215.5 0.2 195 21.6
2007-03-14 11:59:37 51°19.911 2°36.971 215 0.1 207 21.9
2007-03-14 12:00:36 51°19.909 2°36.97 214.7 0.2 195 21.6
2007-03-14 12:01:36 51°19.906 2°36.969 214.3 0.2 222 21.4
2007-03-14 12:02:37 51°19.903 2°36.967 214.6 0.2 209 21.7
2007-03-14 12:03:37 51°19.899 2°36.967 215.2 0.2 204 21.8
2007-03-14 12:04:37 51°19.897 2°36.965 215.6 0.2 192 21.3
2007-03-14 12:05:37 51°19.894 2°36.963 216.6 0.2 199 21.6
2007-03-14 12:06:36 51°19.89 2°36.961 217.3 0.3 181 21
2007-03-14 12:07:36 51°19.887 2°36.959 217.2 0.2 202 20.6
2007-03-14 12:08:37 51°19.884 2°36.957 217.2 0.2 201 20
2007-03-14 12:09:36 51°19.881 2°36.954 217.4 0.2 216 19.8
2007-03-14 12:10:37 51°19.872 2°36.947 219 1.5 217 21.4
2007-03-14 12:11:37 51°19.847 2°36.916 221.1 1.8 218 21.1
2007-03-14 12:12:36 51°19.827 2°36.89 221.9 1.5 223 21
2007-03-14 12:13:37 51°19.811 2°36.868 222.9 1.1 221 21.3
2007-03-14 12:14:36 51°19.798 2°36.849 225 0.9 223 20
2007-03-14 12:15:36 51°19.788 2°36.834 226.8 0.7 219 21.5
2007-03-14 12:16:36 51°19.779 2°36.822 227.4 0.7 224 21.7
2007-03-14 12:17:37 51°19.77 2°36.81 228.6 0.7 219 20.8
2007-03-14 12:18:37 51°19.763 2°36.799 230.2 0.6 222 19.2
2007-03-14 12:19:37 51°19.749 2°36.781 212.4 2 208 21.2
2007-03-14 12:20:37 51°19.709 2°36.786 149 2.9 146 21.3
2007-03-14 12:21:36 51°19.698 2°36.866 73.6 3.5 68 19.6
2007-03-14 12:22:37 51°19.755 2°36.909 8.1 4.5 1 19.3
2007-03-14 12:23:36 51°19.837 2°36.896 359.4 4.9 353 20
2007-03-14 12:24:36 51°19.911 2°36.88 359.1 4.3 352 20.3
2007-03-14 12:25:36 51°19.973 2°36.866 358.7 3.3 352 21.6
2007-03-14 12:26:37 51°20.019 2°36.85 348.8 2.4 341 21.5
2007-03-14 12:27:37 51°20.054 2°36.831 354.9 1.9 346 21.8
2007-03-14 12:28:37 51°20.081 2°36.822 356.1 1.4 345 22.5
2007-03-14 12:29:37 51°20.102 2°36.809 347.6 1.3 331 22.2
2007-03-14 12:30:36 51°20.118 2°36.783 318.3 1.4 304 21.9
2007-03-14 12:31:37 51°20.127 2°36.748 291.7 1.5 279 21.2
2007-03-14 12:32:36 51°20.128 2°36.713 275.3 1.2 269 22.2
2007-03-14 12:33:36 51°20.126 2°36.685 264.9 1 256 21.9
2007-03-14 12:34:37 51°20.123 2°36.661 253.9 0.8 255 21.9
2007-03-14 12:35:37 51°20.116 2°36.643 242.1 0.7 243 21.9
2007-03-14 12:36:37 51°20.11 2°36.63 230.3 0.6 231 21.6
2007-03-14 12:37:37 51°20.103 2°36.618 219.9 0.6 224 21.3
2007-03-14 12:38:37 51°20.097 2°36.609 210.5 0.5 223 21.2
2007-03-14 12:39:36 51°20.09 2°36.603 201.2 0.5 221 21.3
2007-03-14 12:40:37 51°20.084 2°36.596 192.3 0.5 217 21.4
2007-03-14 12:41:36 51°20.077 2°36.591 156 0.5 203 21.2
2007-03-14 12:42:36 51°20.072 2°36.588 137.5 0.2 184 21.7
2007-03-14 12:43:37 51°20.067 2°36.586 128.4 0.3 206 21.2
2007-03-14 12:44:37 51°20.063 2°36.582 121.3 0.2 212 21.7
2007-03-14 12:45:37 51°20.059 2°36.578 116.4 0.3 217 21.3
2007-03-14 12:46:37 51°20.055 2°36.573 112.6 0.4 213 21.4
2007-03-14 12:47:37 51°20.051 2°36.568 108.2 0.3 219 21.5
2007-03-14 12:48:36 51°20.047 2°36.563 103.8 0.3 224 21.1
2007-03-14 12:49:37 51°20.043 2°36.556 98.8 0.3 229 21.1
2007-03-14 12:50:36 51°20.04 2°36.55 92.9 0.3 234 21.3
2007-03-14 12:51:36 51°20.035 2°36.543 87.3 0.5 202 21.2
2007-03-14 12:52:37 51°20.026 2°36.627 100.5 7.2 98 21.9
2007-03-14 12:53:37 51°19.997 2°36.865 120.5 9 126 21
2007-03-14 12:54:37 51°19.908 2°36.993 137 6 133 21.2
2007-03-14 12:55:36 51°19.9 2°37.098 67.9 3.4 59 21.2
2007-03-14 12:56:36 51°19.946 2°37.129 3.6 3.1 351 20.9
2007-03-14 12:57:36 51°19.983 2°37.09 323.1 2.6 315 20.3
2007-03-14 12:58:37 51°20.017 2°37.052 348.7 2.8 336 21
2007-03-14 12:59:36 51°20.046 2°37.002 312.4 2.6 301 21.2
2007-03-14 13:00:36 51°20.067 2°36.944 307.7 2.4 297 23.4
2007-03-14 13:01:37 51°20.087 2°36.887 318.9 2.4 307 21.1
2007-03-14 13:02:36 51°20.1 2°36.853 323.7 1 300 20.8
2007-03-14 13:03:37 51°20.108 2°36.829 322.3 0.9 293 20.7
2007-03-14 13:04:37 51°20.113 2°36.808 318.5 0.8 290 21.8
2007-03-14 13:05:36 51°20.117 2°36.791 315.5 0.6 286 21.7
2007-03-14 13:06:36 51°20.118 2°36.776 312.9 0.6 259 21.3
2007-03-14 13:07:36 51°20.117 2°36.767 311.3 0.3 234 20.5
2007-03-14 13:08:37 51°20.108 2°36.771 314.5 0.7 155 4.6
2007-03-14 13:09:36 51°20.096 2°36.778 319.6 0.7 165 21.3
2007-03-14 13:10:37 51°20.085 2°36.782 323.1 0.7 171 21.7
2007-03-14 13:11:36 51°20.074 2°36.785 328.7 0.7 181 21
2007-03-14 13:12:36 51°20.064 2°36.784 334.8 0.4 218 21.3
2007-03-14 13:13:36 51°20.063 2°36.773 323.6 0.4 247 20.7
2007-03-14 13:14:36 51°20.061 2°36.764 321.9 0.4 246 21.2
2007-03-14 13:15:37 51°20.058 2°36.756 323.1 0.4 250 21.3
2007-03-14 13:16:36 51°20.055 2°36.748 326.3 0.3 243 21.3
2007-03-14 13:17:37 51°20.052 2°36.74 331.6 0.3 235 21.2
2007-03-14 13:18:36 51°20.049 2°36.733 339.4 0.3 218 21
2007-03-14 13:19:37 51°20.044 2°36.726 347.5 0.3 211 20.7
2007-03-14 13:20:36 51°20.039 2°36.719 356.2 0.3 210 20.2
2007-03-14 13:21:37 51°20.034 2°36.712 5.6 0.4 214 19.7
2007-03-14 13:22:36 51°20.029 2°36.706 14.5 0.4 215 21
2007-03-14 13:23:37 51°20.023 2°36.698 22.8 0.4 224 21.2
2007-03-14 13:24:37 51°20.018 2°36.69 30.3 0.5 229 21
2007-03-14 13:25:36 51°20.013 2°36.683 36.8 0.4 220 21.1
2007-03-14 13:26:36 51°20.007 2°36.676 42.5 0.5 218 21.2
2007-03-14 13:27:36 51°20.001 2°36.668 47.8 0.5 213 21.2
2007-03-14 13:28:37 51°19.994 2°36.66 53.6 0.5 217 21
2007-03-14 13:29:36 51°20.005 2°36.678 38 3.2 26 21
2007-03-14 13:30:37 51°20.105 2°36.754 33.7 9.9 27 21.5
2007-03-14 13:31:36 51°20.266 2°36.896 51 11.8 49 20.7
2007-03-14 13:32:37 51°20.432 2°37.112 43 13 38 22.2
2007-03-14 13:33:37 51°20.59 2°37.349 49.2 13.1 44 22.6
2007-03-14 13:34:36 51°20.74 2°37.592 50 13.1 45 22.9
2007-03-14 13:35:37 51°20.893 2°37.845 50 13 47 24.1
2007-03-14 13:36:36 51°21.042 2°38.089 49.4 13 45 24.2
2007-03-14 13:37:37 51°21.192 2°38.324 46.8 10 43 24.9
2007-03-14 13:38:37 51°21.279 2°38.414 20.2 4 14 25.5
2007-03-14 13:39:37 51°21.321 2°38.403 343 1.7 326 25.8
2007-03-14 13:40:37 51°21.336 2°38.367 307 2 287 25.7
2007-03-14 13:41:37 51°21.33 2°38.302 252.5 3.1 242 25
2007-03-14 13:42:37 51°21.284 2°38.257 187.1 3.4 186 25.8
2007-03-14 13:43:36 51°21.238 2°38.282 134.2 2.5 147 25.4
2007-03-14 13:44:37 51°21.21 2°38.316 121.4 1.8 139 25.2
2007-03-14 13:45:36 51°21.192 2°38.335 118.4 1 158 24.8
2007-03-14 13:46:37 51°21.183 2°38.33 111.7 0.6 222 24.9
2007-03-14 13:47:36 51°21.176 2°38.317 111.4 0.6 235 25.2
2007-03-14 13:48:37 51°21.169 2°38.306 111.9 0.5 220 24.7
2007-03-14 13:49:37 51°21.162 2°38.297 115.2 0.5 211 24.4
2007-03-14 13:50:36 51°21.155 2°38.289 118.6 0.5 229 24.7
2007-03-14 13:51:37 51°21.151 2°38.27 122.4 0.7 247 23.3
2007-03-14 13:52:36 51°21.142 2°38.282 89.2 1.2 104 23.8
2007-03-14 13:53:37 51°21.153 2°38.316 38.2 1.7 30 24.9
2007-03-14 13:54:37 51°21.187 2°38.322 14.8 2.1 6 24.5
2007-03-14 13:55:37 51°21.213 2°38.341 45.4 1.4 41 24.8
2007-03-14 13:56:37 51°21.221 2°38.36 66.3 0.6 76 24
2007-03-14 13:57:37 51°21.22 2°38.372 80.2 0.4 128 24.4
2007-03-14 13:58:37 51°21.215 2°38.373 95.2 0.4 204 24.1
2007-03-14 13:59:37 51°21.208 2°38.366 107.2 0.5 217 24.2
2007-03-14 14:00:37 51°21.201 2°38.357 116.2 0.6 235 24.2
2007-03-14 14:01:37 51°21.198 2°38.34 123.4 0.7 255 23.9
2007-03-14 14:02:37 51°21.195 2°38.323 125 0.6 246 24.6
2007-03-14 14:03:37 51°21.191 2°38.309 123.7 0.6 244 24.6
2007-03-14 14:04:37 51°21.186 2°38.295 121.7 0.6 239 24.4
2007-03-14 14:05:37 51°21.181 2°38.282 119.9 0.6 234 24.7
2007-03-14 14:06:37 51°21.174 2°38.274 121.5 1 155 24.4
2007-03-14 14:07:37 51°21.138 2°38.294 166.7 3.4 175 23.6
2007-03-14 14:08:37 51°21.007 2°38.364 150.5 11.7 151 22.6
2007-03-14 14:09:37 51°20.814 2°38.532 154.6 13.7 156 23.7
2007-03-14 14:10:37 51°20.6 2°38.654 162.3 13.8 163 23.8
2007-03-14 14:11:37 51°20.381 2°38.764 162.3 13.8 163 23.6
2007-03-14 14:12:37 51°20.16 2°38.862 164.9 13.8 165 23.6
2007-03-14 14:13:37 51°19.937 2°38.953 165 13.8 165 24.4
2007-03-14 14:14:37 51°19.716 2°39.046 164.3 13.6 165 26.1
2007-03-14 14:15:37 51°19.496 2°39.138 165.3 13.6 166 28.5
2007-03-14 14:16:37 51°19.276 2°39.229 165.4 13.7 165 28.2
2007-03-14 14:17:37 51°19.056 2°39.322 165.3 13.7 165 25.9
2007-03-14 14:18:37 51°18.833 2°39.414 165.4 13.7 165 24.5
2007-03-14 14:19:37 51°18.612 2°39.506 165.4 13.7 166 24.3
2007-03-14 14:20:37 51°18.393 2°39.599 165.2 13.5 165 25.3
2007-03-14 14:21:37 51°18.176 2°39.687 165 13.4 166 25.6
2007-03-14 14:22:37 51°17.96 2°39.772 164.8 13.1 165 12.2
2007-03-14 14:23:37 51°17.749 2°39.875 161.8 13.4 163 15.8
2007-03-14 14:24:37 51°17.538 2°39.976 162.8 13.3 164 13.6
2007-03-14 14:25:37 51°17.326 2°40.08 161.2 13.5 163 14.4
2007-03-14 14:26:37 51°17.113 2°40.191 158.6 13.5 159 18
2007-03-14 14:27:37 51°16.902 2°40.32 158.1 13.6 159 20.7
2007-03-14 14:28:37 51°16.691 2°40.449 157.5 13.6 159 21.5
2007-03-14 14:29:37 51°16.48 2°40.577 158.2 13.5 160 21.3
2007-03-14 14:30:37 51°16.271 2°40.713 155 13.6 157 18.9
2007-03-14 14:31:37 51°16.065 2°40.861 154.8 13.5 155 17
2007-03-14 14:32:37 51°15.86 2°41.006 156 13.5 157 13.3
2007-03-14 14:33:37 51°15.657 2°41.149 155.2 13.2 156 11
2007-03-14 14:34:37 51°15.49 2°41.358 127.3 12.6 122 9.7
2007-03-14 14:35:37 51°15.424 2°41.673 96.5 12.6 94 10
2007-03-14 14:36:37 51°15.426 2°42.007 90.1 12.7 89 9.6
2007-03-14 14:37:37 51°15.424 2°42.344 91.9 12.7 92 10.5
2007-03-14 14:38:37 51°15.413 2°42.683 93.6 12.8 94 9.5
2007-03-14 14:39:38 51°15.399 2°43.028 94.8 12.8 94 11.6
2007-03-14 14:40:37 51°15.385 2°43.361 94.7 12.8 95 12.7
2007-03-14 14:41:37 51°15.369 2°43.7 94.8 12.7 94 12.4
2007-03-14 14:42:37 51°15.351 2°44.038 95.4 12.9 95 11.6
2007-03-14 14:43:37 51°15.334 2°44.378 95 12.8 94 15.3
2007-03-14 14:44:37 51°15.318 2°44.717 95.1 12.8 94 17.3
2007-03-14 14:45:37 51°15.294 2°45.054 98.4 12.8 98 17.4
2007-03-14 14:46:38 51°15.264 2°45.394 97.7 12.7 97 15.8
2007-03-14 14:47:37 51°15.244 2°45.724 96 12.8 96 14.9
2007-03-14 14:48:37 51°15.255 2°46.056 86.2 12.5 88 13.8
2007-03-14 14:49:38 51°15.234 2°46.395 97.1 12.7 97 12.4
2007-03-14 14:50:37 51°15.209 2°46.723 97.2 12.7 97 10.8
2007-03-14 14:51:38 51°15.182 2°47.061 97.5 12.7 98 9.3
2007-03-14 14:52:38 51°15.158 2°47.393 96.4 12.5 97 8.6
2007-03-14 14:53:37 51°15.132 2°47.723 97.5 12.9 97 9.7
2007-03-14 14:54:37 51°15.106 2°48.066 97.7 12.9 97 12.1
2007-03-14 14:55:38 51°15.079 2°48.41 97.5 12.8 97 12.3
2007-03-14 14:56:37 51°15.055 2°48.741 96.9 12.8 96 12
2007-03-14 14:57:38 51°15.03 2°49.083 96.7 12.8 97 12.1
2007-03-14 14:58:38 51°15.004 2°49.421 97.2 12.8 97 12.1
2007-03-14 14:59:37 51°14.98 2°49.751 97.6 12.7 97 11.9
2007-03-14 15:00:38 51°14.955 2°50.092 98 12.7 97 11.8
2007-03-14 15:01:37 51°14.931 2°50.422 97.6 12.7 97 11.5
2007-03-14 15:02:37 51°14.907 2°50.757 96.6 12.7 97 11.3
2007-03-14 15:03:37 51°14.884 2°51.091 97.2 12.6 96 10.9
2007-03-14 15:04:37 51°14.86 2°51.424 97.2 12.6 97 10.4
2007-03-14 15:05:37 51°14.836 2°51.757 96.9 12.6 96 9.9
2007-03-14 15:06:37 51°14.812 2°52.091 97.2 12.7 96 10
2007-03-14 15:07:37 51°14.789 2°52.424 96.9 12.6 96 9.1
2007-03-14 15:08:37 51°14.772 2°52.682 94.3 7.4 96 9.1
2007-03-14 15:09:37 51°14.757 2°52.843 98.8 5.6 100 9.1
2007-03-14 15:10:37 51°14.738 2°53.003 99.4 6.4 101 9
2007-03-14 15:11:37 51°14.704 2°53.172 108.5 6.8 110 8.7
2007-03-14 15:12:37 51°14.667 2°53.343 106.6 6.9 109 8.6
2007-03-14 15:13:37 51°14.635 2°53.495 105.2 5.4 109 8.2
2007-03-14 15:14:37 51°14.609 2°53.62 105.9 5.2 108 8.5
2007-03-14 15:15:37 51°14.576 2°53.778 107.4 7.1 109 9.4
2007-03-14 15:16:37 51°14.533 2°53.985 108.1 9.3 109 9.4
2007-03-14 15:17:37 51°14.483 2°54.258 106.6 12.2 105 10.6
2007-03-14 15:18:37 51°14.44 2°54.587 99.4 12.9 95 10
2007-03-14 15:19:37 51°14.417 2°54.926 108.1 13.2 109 10.1
2007-03-14 15:20:37 51°14.314 2°55.217 132.5 11.8 129 8.8
2007-03-14 15:21:37 51°14.148 2°55.402 155.8 12.6 153 5.7
2007-03-14 15:22:37 51°13.989 2°55.518 158.2 10.1 156 4.7
2007-03-14 15:23:37 51°13.834 2°55.632 158.2 10.1 154 10.8
2007-03-14 15:24:37 51°13.727 2°55.755 139.3 6.1 137 -999
2007-03-14 15:25:39 51°13.678 2°55.855 129.6 3.9 126 9.6
2007-03-14 15:26:41 51°13.642 2°55.938 128 3.5 124 10
2007-03-14 15:27:41 51°13.617 2°56.012 116.9 2.9 111 -999
2007-03-14 15:28:41 51°13.606 2°56.067 113.2 1.6 107 8.3
2007-03-14 15:29:39 51°13.6 2°56.09 125.7 0.4 128 6.3